sensor_id;sensor_type;location;lat;lon;timestamp;temperature;humidity
9824;DHT22;4951;50.778;7.196;2022-10-16T00:00:49;13.30;21.60
9824;DHT22;4951;50.778;7.196;2022-10-16T00:03:16;13.30;28.60
9824;DHT22;4951;50.778;7.196;2022-10-16T00:05:44;13.30;31.90
9824;DHT22;4951;50.778;7.196;2022-10-16T00:08:12;13.30;36.40
9824;DHT22;4951;50.778;7.196;2022-10-16T00:10:41;13.20;36.20
9824;DHT22;4951;50.778;7.196;2022-10-16T00:13:08;13.20;43.70
9824;DHT22;4951;50.778;7.196;2022-10-16T00:15:36;13.30;48.30
9824;DHT22;4951;50.778;7.196;2022-10-16T00:18:05;13.30;58.00
9824;DHT22;4951;50.778;7.196;2022-10-16T00:20:34;13.30;80.00
9824;DHT22;4951;50.778;7.196;2022-10-16T00:23:03;13.40;94.40
9824;DHT22;4951;50.778;7.196;2022-10-16T00:25:31;13.50;94.30
9824;DHT22;4951;50.778;7.196;2022-10-16T00:28:00;13.60;92.30
9824;DHT22;4951;50.778;7.196;2022-10-16T00:30:28;13.60;84.60
9824;DHT22;4951;50.778;7.196;2022-10-16T00:32:56;13.60;66.10
9824;DHT22;4951;50.778;7.196;2022-10-16T00:35:23;13.60;58.30
9824;DHT22;4951;50.778;7.196;2022-10-16T00:37:50;13.60;48.10
9824;DHT22;4951;50.778;7.196;2022-10-16T00:40:17;13.60;46.00
9824;DHT22;4951;50.778;7.196;2022-10-16T00:42:44;13.60;38.60
9824;DHT22;4951;50.778;7.196;2022-10-16T00:45:13;13.60;44.10
9824;DHT22;4951;50.778;7.196;2022-10-16T00:47:42;13.60;35.00
9824;DHT22;4951;50.778;7.196;2022-10-16T00:50:18;13.50;31.00
9824;DHT22;4951;50.778;7.196;2022-10-16T00:52:50;13.50;26.60
9824;DHT22;4951;50.778;7.196;2022-10-16T00:55:18;13.50;24.90
9824;DHT22;4951;50.778;7.196;2022-10-16T00:57:46;13.40;23.60
9824;DHT22;4951;50.778;7.196;2022-10-16T01:00:17;13.40;20.20
9824;DHT22;4951;50.778;7.196;2022-10-16T01:02:52;13.30;21.40
9824;DHT22;4951;50.778;7.196;2022-10-16T01:05:20;13.30;24.70
9824;DHT22;4951;50.778;7.196;2022-10-16T01:07:55;13.20;25.60
9824;DHT22;4951;50.778;7.196;2022-10-16T01:10:27;13.20;26.40
9824;DHT22;4951;50.778;7.196;2022-10-16T01:13:00;13.20;26.70
9824;DHT22;4951;50.778;7.196;2022-10-16T01:15:32;13.10;27.20
9824;DHT22;4951;50.778;7.196;2022-10-16T01:18:03;13.10;30.10
9824;DHT22;4951;50.778;7.196;2022-10-16T01:20:35;13.10;30.90
9824;DHT22;4951;50.778;7.196;2022-10-16T01:23:13;13.10;35.70
9824;DHT22;4951;50.778;7.196;2022-10-16T01:25:59;13.00;37.00
9824;DHT22;4951;50.778;7.196;2022-10-16T01:28:36;13.00;38.70
9824;DHT22;4951;50.778;7.196;2022-10-16T01:31:06;13.00;40.10
9824;DHT22;4951;50.778;7.196;2022-10-16T01:33:39;12.90;46.70
9824;DHT22;4951;50.778;7.196;2022-10-16T01:36:11;12.90;43.20
9824;DHT22;4951;50.778;7.196;2022-10-16T01:38:40;12.90;47.20
9824;DHT22;4951;50.778;7.196;2022-10-16T01:41:13;12.90;47.70
9824;DHT22;4951;50.778;7.196;2022-10-16T01:43:46;12.90;48.50
9824;DHT22;4951;50.778;7.196;2022-10-16T01:46:17;12.80;49.10
9824;DHT22;4951;50.778;7.196;2022-10-16T01:48:46;12.80;49.50
9824;DHT22;4951;50.778;7.196;2022-10-16T01:51:15;12.70;48.70
9824;DHT22;4951;50.778;7.196;2022-10-16T01:53:48;12.60;47.70
9824;DHT22;4951;50.778;7.196;2022-10-16T01:56:17;12.60;55.70
9824;DHT22;4951;50.778;7.196;2022-10-16T01:58:51;12.50;46.50
9824;DHT22;4951;50.778;7.196;2022-10-16T02:01:20;12.50;49.60
9824;DHT22;4951;50.778;7.196;2022-10-16T02:03:51;12.40;58.40
9824;DHT22;4951;50.778;7.196;2022-10-16T02:06:19;12.40;67.50
9824;DHT22;4951;50.778;7.196;2022-10-16T02:08:46;12.40;85.90
9824;DHT22;4951;50.778;7.196;2022-10-16T02:11:13;12.40;88.60
9824;DHT22;4951;50.778;7.196;2022-10-16T02:13:44;12.40;93.80
9824;DHT22;4951;50.778;7.196;2022-10-16T02:16:14;12.40;97.40
9824;DHT22;4951;50.778;7.196;2022-10-16T02:18:42;12.50;99.90
9824;DHT22;4951;50.778;7.196;2022-10-16T02:21:16;12.50;99.90
9824;DHT22;4951;50.778;7.196;2022-10-16T02:23:49;12.60;99.90
9824;DHT22;4951;50.778;7.196;2022-10-16T02:26:23;12.60;99.90
9824;DHT22;4951;50.778;7.196;2022-10-16T02:28:55;12.60;99.90
9824;DHT22;4951;50.778;7.196;2022-10-16T02:31:28;12.60;99.90
9824;DHT22;4951;50.778;7.196;2022-10-16T02:33:58;12.70;99.90
9824;DHT22;4951;50.778;7.196;2022-10-16T02:36:26;12.60;99.90
9824;DHT22;4951;50.778;7.196;2022-10-16T02:38:54;12.70;99.90
9824;DHT22;4951;50.778;7.196;2022-10-16T02:41:22;12.70;99.90
9824;DHT22;4951;50.778;7.196;2022-10-16T02:43:49;12.70;99.90
9824;DHT22;4951;50.778;7.196;2022-10-16T02:46:17;12.70;99.90
9824;DHT22;4951;50.778;7.196;2022-10-16T02:48:46;12.70;99.90
9824;DHT22;4951;50.778;7.196;2022-10-16T02:51:13;12.70;99.90
9824;DHT22;4951;50.778;7.196;2022-10-16T02:53:40;12.80;99.90
9824;DHT22;4951;50.778;7.196;2022-10-16T02:56:07;12.80;99.90
9824;DHT22;4951;50.778;7.196;2022-10-16T02:58:34;12.80;99.90
9824;DHT22;4951;50.778;7.196;2022-10-16T03:01:01;12.80;99.90
9824;DHT22;4951;50.778;7.196;2022-10-16T03:03:28;12.80;99.90
9824;DHT22;4951;50.778;7.196;2022-10-16T03:05:58;12.90;99.90
9824;DHT22;4951;50.778;7.196;2022-10-16T03:08:26;12.80;99.90
9824;DHT22;4951;50.778;7.196;2022-10-16T03:10:53;12.90;99.90
9824;DHT22;4951;50.778;7.196;2022-10-16T03:13:20;13.00;99.90
9824;DHT22;4951;50.778;7.196;2022-10-16T03:15:47;13.20;99.90
9824;DHT22;4951;50.778;7.196;2022-10-16T03:18:14;13.30;99.90
9824;DHT22;4951;50.778;7.196;2022-10-16T03:20:42;13.50;99.90
9824;DHT22;4951;50.778;7.196;2022-10-16T03:23:11;13.60;99.90
9824;DHT22;4951;50.778;7.196;2022-10-16T03:25:38;13.80;99.90
9824;DHT22;4951;50.778;7.196;2022-10-16T03:28:05;13.90;54.40
9824;DHT22;4951;50.778;7.196;2022-10-16T03:30:32;14.00;17.40
9824;DHT22;4951;50.778;7.196;2022-10-16T03:32:59;14.00;1.00
9824;DHT22;4951;50.778;7.196;2022-10-16T03:35:27;14.00;1.00
9824;DHT22;4951;50.778;7.196;2022-10-16T03:37:54;14.10;1.00
9824;DHT22;4951;50.778;7.196;2022-10-16T03:40:23;14.10;1.00
9824;DHT22;4951;50.778;7.196;2022-10-16T03:42:50;14.10;1.00
9824;DHT22;4951;50.778;7.196;2022-10-16T03:45:17;14.20;1.00
9824;DHT22;4951;50.778;7.196;2022-10-16T03:47:44;14.20;1.00
9824;DHT22;4951;50.778;7.196;2022-10-16T03:50:11;14.30;1.00
9824;DHT22;4951;50.778;7.196;2022-10-16T03:52:38;14.30;1.00
9824;DHT22;4951;50.778;7.196;2022-10-16T03:55:06;14.40;1.00
9824;DHT22;4951;50.778;7.196;2022-10-16T03:57:35;14.50;1.00
9824;DHT22;4951;50.778;7.196;2022-10-16T04:00:03;14.50;1.00
9824;DHT22;4951;50.778;7.196;2022-10-16T04:02:38;14.60;1.00
9824;DHT22;4951;50.778;7.196;2022-10-16T04:05:05;14.60;1.00
9824;DHT22;4951;50.778;7.196;2022-10-16T04:07:33;14.60;1.00
9824;DHT22;4951;50.778;7.196;2022-10-16T04:10:00;14.60;1.00
9824;DHT22;4951;50.778;7.196;2022-10-16T04:12:27;14.70;1.00
9824;DHT22;4951;50.778;7.196;2022-10-16T04:14:56;14.70;1.00
9824;DHT22;4951;50.778;7.196;2022-10-16T04:17:23;14.70;1.00
9824;DHT22;4951;50.778;7.196;2022-10-16T04:19:50;14.70;1.00
9824;DHT22;4951;50.778;7.196;2022-10-16T04:22:17;14.70;1.00
9824;DHT22;4951;50.778;7.196;2022-10-16T04:24:44;14.70;1.00
9824;DHT22;4951;50.778;7.196;2022-10-16T04:27:11;14.70;1.00
9824;DHT22;4951;50.778;7.196;2022-10-16T04:29:38;14.70;1.00
9824;DHT22;4951;50.778;7.196;2022-10-16T04:32:07;14.70;1.00
9824;DHT22;4951;50.778;7.196;2022-10-16T04:34:35;14.70;1.00
9824;DHT22;4951;50.778;7.196;2022-10-16T04:37:03;14.70;1.00
9824;DHT22;4951;50.778;7.196;2022-10-16T04:39:30;14.70;1.00
9824;DHT22;4951;50.778;7.196;2022-10-16T04:41:57;14.70;1.00
9824;DHT22;4951;50.778;7.196;2022-10-16T04:44:25;14.80;1.00
9824;DHT22;4951;50.778;7.196;2022-10-16T04:46:52;14.80;1.00
9824;DHT22;4951;50.778;7.196;2022-10-16T04:49:20;14.80;1.00
9824;DHT22;4951;50.778;7.196;2022-10-16T04:51:47;14.80;1.00
9824;DHT22;4951;50.778;7.196;2022-10-16T04:54:14;14.80;1.00
9824;DHT22;4951;50.778;7.196;2022-10-16T04:56:42;14.80;1.00
9824;DHT22;4951;50.778;7.196;2022-10-16T04:59:13;14.80;1.00
9824;DHT22;4951;50.778;7.196;2022-10-16T05:01:40;14.80;1.00
9824;DHT22;4951;50.778;7.196;2022-10-16T05:04:08;14.80;1.00
9824;DHT22;4951;50.778;7.196;2022-10-16T05:06:37;14.80;1.00
9824;DHT22;4951;50.778;7.196;2022-10-16T05:09:05;14.80;1.00
9824;DHT22;4951;50.778;7.196;2022-10-16T05:11:32;14.70;1.00
9824;DHT22;4951;50.778;7.196;2022-10-16T05:13:59;14.70;1.00
9824;DHT22;4951;50.778;7.196;2022-10-16T05:16:27;14.70;1.00
9824;DHT22;4951;50.778;7.196;2022-10-16T05:18:54;14.70;1.00
9824;DHT22;4951;50.778;7.196;2022-10-16T05:21:22;14.70;1.00
9824;DHT22;4951;50.778;7.196;2022-10-16T05:23:50;14.70;1.00
9824;DHT22;4951;50.778;7.196;2022-10-16T05:26:19;14.70;1.00
9824;DHT22;4951;50.778;7.196;2022-10-16T05:28:46;14.60;1.00
9824;DHT22;4951;50.778;7.196;2022-10-16T05:31:13;14.60;1.00
9824;DHT22;4951;50.778;7.196;2022-10-16T05:33:41;14.60;1.00
9824;DHT22;4951;50.778;7.196;2022-10-16T05:36:10;14.60;1.00
9824;DHT22;4951;50.778;7.196;2022-10-16T05:38:38;14.60;1.00
9824;DHT22;4951;50.778;7.196;2022-10-16T05:41:07;14.60;1.00
9824;DHT22;4951;50.778;7.196;2022-10-16T05:43:34;14.60;1.00
9824;DHT22;4951;50.778;7.196;2022-10-16T05:46:03;14.60;1.00
9824;DHT22;4951;50.778;7.196;2022-10-16T05:48:31;14.60;1.00
9824;DHT22;4951;50.778;7.196;2022-10-16T05:50:59;14.50;1.00
9824;DHT22;4951;50.778;7.196;2022-10-16T05:53:27;14.50;1.00
9824;DHT22;4951;50.778;7.196;2022-10-16T05:55:55;14.40;1.00
9824;DHT22;4951;50.778;7.196;2022-10-16T05:58:24;14.40;1.00
9824;DHT22;4951;50.778;7.196;2022-10-16T06:00:55;14.40;1.00
9824;DHT22;4951;50.778;7.196;2022-10-16T06:03:24;14.30;1.00
9824;DHT22;4951;50.778;7.196;2022-10-16T06:05:51;14.30;1.00
9824;DHT22;4951;50.778;7.196;2022-10-16T06:08:21;14.20;1.00
9824;DHT22;4951;50.778;7.196;2022-10-16T06:10:49;14.20;1.00
9824;DHT22;4951;50.778;7.196;2022-10-16T06:13:27;14.10;1.00
9824;DHT22;4951;50.778;7.196;2022-10-16T06:15:57;14.10;1.00
9824;DHT22;4951;50.778;7.196;2022-10-16T06:18:25;14.00;1.00
9824;DHT22;4951;50.778;7.196;2022-10-16T06:20:52;14.00;1.00
9824;DHT22;4951;50.778;7.196;2022-10-16T06:23:20;14.00;1.00
9824;DHT22;4951;50.778;7.196;2022-10-16T06:25:47;14.00;1.00
9824;DHT22;4951;50.778;7.196;2022-10-16T06:28:14;14.00;1.00
9824;DHT22;4951;50.778;7.196;2022-10-16T06:30:43;14.00;1.00
9824;DHT22;4951;50.778;7.196;2022-10-16T06:33:11;14.00;1.00
9824;DHT22;4951;50.778;7.196;2022-10-16T06:35:38;13.90;1.00
9824;DHT22;4951;50.778;7.196;2022-10-16T06:38:06;13.90;1.00
9824;DHT22;4951;50.778;7.196;2022-10-16T06:40:33;13.90;1.00
9824;DHT22;4951;50.778;7.196;2022-10-16T06:43:00;13.90;1.00
9824;DHT22;4951;50.778;7.196;2022-10-16T06:45:27;13.80;1.00
9824;DHT22;4951;50.778;7.196;2022-10-16T06:47:55;13.80;1.00
9824;DHT22;4951;50.778;7.196;2022-10-16T06:50:22;13.80;1.00
9824;DHT22;4951;50.778;7.196;2022-10-16T06:52:50;13.80;1.00
9824;DHT22;4951;50.778;7.196;2022-10-16T06:55:17;13.80;1.00
9824;DHT22;4951;50.778;7.196;2022-10-16T06:57:46;13.80;1.00
9824;DHT22;4951;50.778;7.196;2022-10-16T07:00:14;13.80;1.00
9824;DHT22;4951;50.778;7.196;2022-10-16T07:02:41;13.90;1.00
9824;DHT22;4951;50.778;7.196;2022-10-16T07:05:09;13.90;1.00
9824;DHT22;4951;50.778;7.196;2022-10-16T07:07:36;14.00;1.00
9824;DHT22;4951;50.778;7.196;2022-10-16T07:10:04;14.00;1.00
9824;DHT22;4951;50.778;7.196;2022-10-16T07:12:31;14.00;1.00
9824;DHT22;4951;50.778;7.196;2022-10-16T07:14:58;14.10;1.00
9824;DHT22;4951;50.778;7.196;2022-10-16T07:17:26;14.00;1.00
9824;DHT22;4951;50.778;7.196;2022-10-16T07:19:53;14.00;1.00
9824;DHT22;4951;50.778;7.196;2022-10-16T07:22:22;14.00;1.00
9824;DHT22;4951;50.778;7.196;2022-10-16T07:24:49;14.00;1.00
9824;DHT22;4951;50.778;7.196;2022-10-16T07:27:17;14.10;1.00
9824;DHT22;4951;50.778;7.196;2022-10-16T07:29:44;14.20;1.00
9824;DHT22;4951;50.778;7.196;2022-10-16T07:32:11;14.20;1.00
9824;DHT22;4951;50.778;7.196;2022-10-16T07:34:38;14.30;1.00
9824;DHT22;4951;50.778;7.196;2022-10-16T07:37:05;14.30;1.00
9824;DHT22;4951;50.778;7.196;2022-10-16T07:39:33;14.40;1.00
9824;DHT22;4951;50.778;7.196;2022-10-16T07:42:00;14.40;1.00
9824;DHT22;4951;50.778;7.196;2022-10-16T07:44:27;14.40;1.00
9824;DHT22;4951;50.778;7.196;2022-10-16T07:46:55;14.40;1.00
9824;DHT22;4951;50.778;7.196;2022-10-16T07:49:22;14.50;1.00
9824;DHT22;4951;50.778;7.196;2022-10-16T07:51:49;14.50;1.00
9824;DHT22;4951;50.778;7.196;2022-10-16T07:54:16;14.60;1.00
9824;DHT22;4951;50.778;7.196;2022-10-16T07:56:44;14.60;1.00
9824;DHT22;4951;50.778;7.196;2022-10-16T07:59:11;14.60;1.00
9824;DHT22;4951;50.778;7.196;2022-10-16T08:01:39;14.60;1.00
9824;DHT22;4951;50.778;7.196;2022-10-16T08:04:08;14.60;1.00
9824;DHT22;4951;50.778;7.196;2022-10-16T08:06:37;14.60;1.00
9824;DHT22;4951;50.778;7.196;2022-10-16T08:09:04;14.60;1.00
9824;DHT22;4951;50.778;7.196;2022-10-16T08:11:32;14.60;1.00
9824;DHT22;4951;50.778;7.196;2022-10-16T08:14:01;14.60;1.00
9824;DHT22;4951;50.778;7.196;2022-10-16T08:16:28;14.50;1.00
9824;DHT22;4951;50.778;7.196;2022-10-16T08:18:55;14.50;1.00
9824;DHT22;4951;50.778;7.196;2022-10-16T08:21:23;14.50;1.00
9824;DHT22;4951;50.778;7.196;2022-10-16T08:23:50;14.50;1.00
9824;DHT22;4951;50.778;7.196;2022-10-16T08:26:17;14.40;1.00
9824;DHT22;4951;50.778;7.196;2022-10-16T08:28:46;14.40;1.00
9824;DHT22;4951;50.778;7.196;2022-10-16T08:31:17;14.40;1.00
9824;DHT22;4951;50.778;7.196;2022-10-16T08:33:45;14.40;1.00
9824;DHT22;4951;50.778;7.196;2022-10-16T08:36:13;14.40;1.00
9824;DHT22;4951;50.778;7.196;2022-10-16T08:38:41;14.50;1.00
9824;DHT22;4951;50.778;7.196;2022-10-16T08:44:18;14.70;1.00
9824;DHT22;4951;50.778;7.196;2022-10-16T08:46:58;14.80;1.00
9824;DHT22;4951;50.778;7.196;2022-10-16T08:49:30;15.00;1.00
9824;DHT22;4951;50.778;7.196;2022-10-16T08:51:57;15.20;1.00
9824;DHT22;4951;50.778;7.196;2022-10-16T08:54:29;15.40;1.00
9824;DHT22;4951;50.778;7.196;2022-10-16T08:57:07;15.50;1.00
9824;DHT22;4951;50.778;7.196;2022-10-16T08:59:36;15.60;1.00
9824;DHT22;4951;50.778;7.196;2022-10-16T09:02:22;15.60;1.00
9824;DHT22;4951;50.778;7.196;2022-10-16T09:05:02;15.60;1.00
9824;DHT22;4951;50.778;7.196;2022-10-16T09:07:34;15.60;1.00
9824;DHT22;4951;50.778;7.196;2022-10-16T09:10:19;15.70;1.00
9824;DHT22;4951;50.778;7.196;2022-10-16T09:12:53;15.70;1.00
9824;DHT22;4951;50.778;7.196;2022-10-16T09:15:30;15.70;1.00
9824;DHT22;4951;50.778;7.196;2022-10-16T09:18:04;15.80;1.00
9824;DHT22;4951;50.778;7.196;2022-10-16T09:20:48;15.90;1.00
9824;DHT22;4951;50.778;7.196;2022-10-16T09:23:17;16.00;1.00
9824;DHT22;4951;50.778;7.196;2022-10-16T09:25:47;16.20;1.00
9824;DHT22;4951;50.778;7.196;2022-10-16T09:28:15;16.40;1.00
9824;DHT22;4951;50.778;7.196;2022-10-16T09:30:43;16.60;1.00
9824;DHT22;4951;50.778;7.196;2022-10-16T09:33:12;16.70;1.00
9824;DHT22;4951;50.778;7.196;2022-10-16T09:35:42;16.80;1.00
9824;DHT22;4951;50.778;7.196;2022-10-16T09:38:21;16.90;1.00
9824;DHT22;4951;50.778;7.196;2022-10-16T09:40:49;17.00;1.00
9824;DHT22;4951;50.778;7.196;2022-10-16T09:43:21;17.10;99.90
9824;DHT22;4951;50.778;7.196;2022-10-16T09:46:01;17.20;99.90
9824;DHT22;4951;50.778;7.196;2022-10-16T09:48:36;17.20;99.90
9824;DHT22;4951;50.778;7.196;2022-10-16T09:51:06;17.30;89.30
9824;DHT22;4951;50.778;7.196;2022-10-16T09:53:41;17.40;95.60
9824;DHT22;4951;50.778;7.196;2022-10-16T09:56:10;17.40;2.40
9824;DHT22;4951;50.778;7.196;2022-10-16T09:58:42;17.50;99.90
9824;DHT22;4951;50.778;7.196;2022-10-16T10:01:13;17.60;1.00
9824;DHT22;4951;50.778;7.196;2022-10-16T10:03:43;17.70;1.00
9824;DHT22;4951;50.778;7.196;2022-10-16T10:06:23;17.80;1.00
9824;DHT22;4951;50.778;7.196;2022-10-16T10:08:56;17.90;1.00
9824;DHT22;4951;50.778;7.196;2022-10-16T10:11:45;18.00;99.90
9824;DHT22;4951;50.778;7.196;2022-10-16T10:14:25;18.10;1.00
9824;DHT22;4951;50.778;7.196;2022-10-16T10:17:10;18.10;1.00
9824;DHT22;4951;50.778;7.196;2022-10-16T10:19:40;18.20;1.00
9824;DHT22;4951;50.778;7.196;2022-10-16T10:22:24;18.30;1.00
9824;DHT22;4951;50.778;7.196;2022-10-16T10:25:19;18.40;1.00
9824;DHT22;4951;50.778;7.196;2022-10-16T10:30:40;18.50;1.00
9824;DHT22;4951;50.778;7.196;2022-10-16T10:33:24;18.60;99.90
9824;DHT22;4951;50.778;7.196;2022-10-16T10:36:00;18.80;1.00
9824;DHT22;4951;50.778;7.196;2022-10-16T10:38:37;18.90;1.00
9824;DHT22;4951;50.778;7.196;2022-10-16T10:41:24;19.10;1.00
9824;DHT22;4951;50.778;7.196;2022-10-16T10:44:01;19.30;99.90
9824;DHT22;4951;50.778;7.196;2022-10-16T10:46:34;19.50;1.00
9824;DHT22;4951;50.778;7.196;2022-10-16T10:49:13;19.70;1.00
9824;DHT22;4951;50.778;7.196;2022-10-16T10:51:49;19.70;1.00
9824;DHT22;4951;50.778;7.196;2022-10-16T10:54:27;19.80;99.90
9824;DHT22;4951;50.778;7.196;2022-10-16T10:56:58;19.90;99.90
9824;DHT22;4951;50.778;7.196;2022-10-16T10:59:56;19.90;1.00
9824;DHT22;4951;50.778;7.196;2022-10-16T11:02:33;20.00;1.00
9824;DHT22;4951;50.778;7.196;2022-10-16T11:05:31;20.10;99.90
9824;DHT22;4951;50.778;7.196;2022-10-16T11:08:09;20.10;1.00
9824;DHT22;4951;50.778;7.196;2022-10-16T11:10:45;20.10;99.90
9824;DHT22;4951;50.778;7.196;2022-10-16T11:13:22;20.20;1.00
9824;DHT22;4951;50.778;7.196;2022-10-16T11:15:52;20.30;99.90
9824;DHT22;4951;50.778;7.196;2022-10-16T11:18:24;20.50;1.00
9824;DHT22;4951;50.778;7.196;2022-10-16T11:20:56;20.60;1.00
9824;DHT22;4951;50.778;7.196;2022-10-16T11:23:30;20.60;1.00
9824;DHT22;4951;50.778;7.196;2022-10-16T11:26:03;20.80;1.00
9824;DHT22;4951;50.778;7.196;2022-10-16T11:28:34;20.80;1.00
9824;DHT22;4951;50.778;7.196;2022-10-16T11:31:08;20.70;77.10
9824;DHT22;4951;50.778;7.196;2022-10-16T11:33:40;20.60;1.00
9824;DHT22;4951;50.778;7.196;2022-10-16T11:36:14;20.50;99.90
9824;DHT22;4951;50.778;7.196;2022-10-16T11:38:49;20.40;1.00
9824;DHT22;4951;50.778;7.196;2022-10-16T11:41:26;20.50;99.90
9824;DHT22;4951;50.778;7.196;2022-10-16T11:44:15;20.70;1.00
9824;DHT22;4951;50.778;7.196;2022-10-16T11:46:48;21.10;99.90
9824;DHT22;4951;50.778;7.196;2022-10-16T11:49:19;21.50;1.00
9824;DHT22;4951;50.778;7.196;2022-10-16T11:51:52;21.70;1.00
9824;DHT22;4951;50.778;7.196;2022-10-16T11:54:30;21.90;1.00
9824;DHT22;4951;50.778;7.196;2022-10-16T11:57:05;21.90;99.90
9824;DHT22;4951;50.778;7.196;2022-10-16T11:59:42;21.70;62.50
9824;DHT22;4951;50.778;7.196;2022-10-16T12:02:28;21.60;99.90
9824;DHT22;4951;50.778;7.196;2022-10-16T12:05:07;21.60;1.00
9824;DHT22;4951;50.778;7.196;2022-10-16T12:07:46;21.60;1.00
9824;DHT22;4951;50.778;7.196;2022-10-16T12:10:23;21.40;1.00
9824;DHT22;4951;50.778;7.196;2022-10-16T12:12:51;21.20;99.90
9824;DHT22;4951;50.778;7.196;2022-10-16T12:15:22;21.00;1.00
9824;DHT22;4951;50.778;7.196;2022-10-16T12:17:50;20.90;10.90
9824;DHT22;4951;50.778;7.196;2022-10-16T12:20:25;20.80;99.90
9824;DHT22;4951;50.778;7.196;2022-10-16T12:22:54;20.60;99.90
9824;DHT22;4951;50.778;7.196;2022-10-16T12:25:25;20.60;1.00
9824;DHT22;4951;50.778;7.196;2022-10-16T12:27:55;20.60;7.60
9824;DHT22;4951;50.778;7.196;2022-10-16T12:30:24;20.70;99.90
9824;DHT22;4951;50.778;7.196;2022-10-16T12:32:54;20.80;99.90
9824;DHT22;4951;50.778;7.196;2022-10-16T12:35:24;20.80;1.00
9824;DHT22;4951;50.778;7.196;2022-10-16T12:37:52;20.90;69.50
9824;DHT22;4951;50.778;7.196;2022-10-16T12:40:31;21.00;99.90
9824;DHT22;4951;50.778;7.196;2022-10-16T12:42:59;21.20;1.00
9824;DHT22;4951;50.778;7.196;2022-10-16T12:45:29;21.20;1.00
9824;DHT22;4951;50.778;7.196;2022-10-16T12:47:58;21.20;31.60
9824;DHT22;4951;50.778;7.196;2022-10-16T12:50:32;21.20;99.90
9824;DHT22;4951;50.778;7.196;2022-10-16T12:53:01;21.30;92.30
9824;DHT22;4951;50.778;7.196;2022-10-16T12:55:35;21.30;1.00
9824;DHT22;4951;50.778;7.196;2022-10-16T12:58:19;21.50;1.00
9824;DHT22;4951;50.778;7.196;2022-10-16T13:00:55;21.60;1.00
9824;DHT22;4951;50.778;7.196;2022-10-16T13:03:50;21.80;1.00
9824;DHT22;4951;50.778;7.196;2022-10-16T13:06:30;22.20;99.90
9824;DHT22;4951;50.778;7.196;2022-10-16T13:09:11;22.70;99.90
9824;DHT22;4951;50.778;7.196;2022-10-16T13:11:57;23.10;1.00
9824;DHT22;4951;50.778;7.196;2022-10-16T13:17:31;23.50;1.00
9824;DHT22;4951;50.778;7.196;2022-10-16T13:20:12;23.30;1.00
9824;DHT22;4951;50.778;7.196;2022-10-16T13:22:52;23.10;1.00
9824;DHT22;4951;50.778;7.196;2022-10-16T13:25:28;22.90;1.00
9824;DHT22;4951;50.778;7.196;2022-10-16T13:28:02;22.70;1.00
9824;DHT22;4951;50.778;7.196;2022-10-16T13:30:33;22.40;54.30
9824;DHT22;4951;50.778;7.196;2022-10-16T13:33:06;22.20;99.90
9824;DHT22;4951;50.778;7.196;2022-10-16T13:35:35;22.10;99.90
9824;DHT22;4951;50.778;7.196;2022-10-16T13:38:12;22.00;99.90
9824;DHT22;4951;50.778;7.196;2022-10-16T13:40:49;21.90;1.00
9824;DHT22;4951;50.778;7.196;2022-10-16T13:43:19;21.70;1.00
9824;DHT22;4951;50.778;7.196;2022-10-16T13:45:54;21.60;1.00
9824;DHT22;4951;50.778;7.196;2022-10-16T13:48:21;21.50;99.90
9824;DHT22;4951;50.778;7.196;2022-10-16T13:50:59;21.50;99.90
9824;DHT22;4951;50.778;7.196;2022-10-16T13:53:26;21.40;99.90
9824;DHT22;4951;50.778;7.196;2022-10-16T13:55:53;21.30;1.00
9824;DHT22;4951;50.778;7.196;2022-10-16T13:58:22;21.30;1.00
9824;DHT22;4951;50.778;7.196;2022-10-16T14:00:54;21.20;1.00
9824;DHT22;4951;50.778;7.196;2022-10-16T14:03:22;21.20;1.00
9824;DHT22;4951;50.778;7.196;2022-10-16T14:05:51;21.00;99.90
9824;DHT22;4951;50.778;7.196;2022-10-16T14:08:18;20.90;1.00
9824;DHT22;4951;50.778;7.196;2022-10-16T14:10:48;20.90;1.00
9824;DHT22;4951;50.778;7.196;2022-10-16T14:13:19;20.80;99.90
9824;DHT22;4951;50.778;7.196;2022-10-16T14:15:50;20.70;1.00
9824;DHT22;4951;50.778;7.196;2022-10-16T14:18:20;20.70;1.00
9824;DHT22;4951;50.778;7.196;2022-10-16T14:20:49;20.60;93.40
9824;DHT22;4951;50.778;7.196;2022-10-16T14:23:22;20.60;99.90
9824;DHT22;4951;50.778;7.196;2022-10-16T14:25:50;20.50;1.00
9824;DHT22;4951;50.778;7.196;2022-10-16T14:28:20;20.40;1.00
9824;DHT22;4951;50.778;7.196;2022-10-16T14:30:53;20.40;99.90
9824;DHT22;4951;50.778;7.196;2022-10-16T14:33:23;20.40;1.00
9824;DHT22;4951;50.778;7.196;2022-10-16T14:36:01;20.50;1.00
9824;DHT22;4951;50.778;7.196;2022-10-16T14:38:29;20.50;1.00
9824;DHT22;4951;50.778;7.196;2022-10-16T14:40:58;20.50;99.90
9824;DHT22;4951;50.778;7.196;2022-10-16T14:43:31;20.50;20.80
9824;DHT22;4951;50.778;7.196;2022-10-16T14:46:02;20.40;1.00
9824;DHT22;4951;50.778;7.196;2022-10-16T14:48:30;20.50;1.00
9824;DHT22;4951;50.778;7.196;2022-10-16T14:50:57;20.50;1.00
9824;DHT22;4951;50.778;7.196;2022-10-16T14:53:25;20.40;1.00
9824;DHT22;4951;50.778;7.196;2022-10-16T14:55:52;20.40;1.00
9824;DHT22;4951;50.778;7.196;2022-10-16T14:58:21;20.30;1.00
9824;DHT22;4951;50.778;7.196;2022-10-16T15:00:50;20.20;1.00
9824;DHT22;4951;50.778;7.196;2022-10-16T15:03:19;20.10;99.90
9824;DHT22;4951;50.778;7.196;2022-10-16T15:05:46;20.00;1.00
9824;DHT22;4951;50.778;7.196;2022-10-16T15:08:13;19.90;41.40
9824;DHT22;4951;50.778;7.196;2022-10-16T15:10:43;19.80;1.00
9824;DHT22;4951;50.778;7.196;2022-10-16T15:13:12;19.70;1.00
9824;DHT22;4951;50.778;7.196;2022-10-16T15:15:42;19.70;99.90
9824;DHT22;4951;50.778;7.196;2022-10-16T15:18:09;19.60;1.00
9824;DHT22;4951;50.778;7.196;2022-10-16T15:20:39;19.60;1.00
9824;DHT22;4951;50.778;7.196;2022-10-16T15:23:12;19.50;1.00
9824;DHT22;4951;50.778;7.196;2022-10-16T15:25:43;19.50;1.00
9824;DHT22;4951;50.778;7.196;2022-10-16T15:28:12;19.40;1.00
9824;DHT22;4951;50.778;7.196;2022-10-16T15:30:40;19.30;1.00
9824;DHT22;4951;50.778;7.196;2022-10-16T15:33:12;19.30;1.00
9824;DHT22;4951;50.778;7.196;2022-10-16T15:35:41;19.20;1.00
9824;DHT22;4951;50.778;7.196;2022-10-16T15:38:11;19.20;1.00
9824;DHT22;4951;50.778;7.196;2022-10-16T15:40:39;19.10;1.00
9824;DHT22;4951;50.778;7.196;2022-10-16T15:43:06;19.00;1.00
9824;DHT22;4951;50.778;7.196;2022-10-16T15:45:33;19.00;99.90
9824;DHT22;4951;50.778;7.196;2022-10-16T15:48:00;18.90;1.00
9824;DHT22;4951;50.778;7.196;2022-10-16T15:50:27;18.80;99.90
9824;DHT22;4951;50.778;7.196;2022-10-16T15:52:56;18.80;1.00
9824;DHT22;4951;50.778;7.196;2022-10-16T15:55:23;18.80;1.00
9824;DHT22;4951;50.778;7.196;2022-10-16T15:57:51;18.70;99.90
9824;DHT22;4951;50.778;7.196;2022-10-16T16:00:19;18.70;99.90
9824;DHT22;4951;50.778;7.196;2022-10-16T16:02:50;18.60;1.00
9824;DHT22;4951;50.778;7.196;2022-10-16T16:05:19;18.60;1.00
9824;DHT22;4951;50.778;7.196;2022-10-16T16:07:49;18.50;1.00
9824;DHT22;4951;50.778;7.196;2022-10-16T16:10:18;18.50;1.00
9824;DHT22;4951;50.778;7.196;2022-10-16T16:12:46;18.50;1.00
9824;DHT22;4951;50.778;7.196;2022-10-16T16:15:18;18.50;99.90
9824;DHT22;4951;50.778;7.196;2022-10-16T16:17:45;18.40;99.90
9824;DHT22;4951;50.778;7.196;2022-10-16T16:20:12;18.40;99.90
9824;DHT22;4951;50.778;7.196;2022-10-16T16:22:39;18.30;99.90
9824;DHT22;4951;50.778;7.196;2022-10-16T16:25:07;18.30;1.00
9824;DHT22;4951;50.778;7.196;2022-10-16T16:27:37;18.20;1.00
9824;DHT22;4951;50.778;7.196;2022-10-16T16:30:06;18.30;1.00
9824;DHT22;4951;50.778;7.196;2022-10-16T16:32:34;18.20;1.00
9824;DHT22;4951;50.778;7.196;2022-10-16T16:35:01;18.20;1.00
9824;DHT22;4951;50.778;7.196;2022-10-16T16:37:29;18.30;1.00
9824;DHT22;4951;50.778;7.196;2022-10-16T16:39:56;18.20;1.00
9824;DHT22;4951;50.778;7.196;2022-10-16T16:42:25;18.20;1.00